Portada
METAR-TAF:

METAR-TAF

Aeroports :

Aurangabad, Índia

latitud: 19-51-46N, longitud: 75-23-53E, altitud: 582 m

Observació

L'informe es va fer fa 2 hores i 33 minuts, a les 09:00 UTC
Vent 4 kt del Oest/Nord-Oest
Temperatura 31°C
Humitat 31%
Pressió 1014 hPa
Visibilitat: 4000 m
calitja

METAR: VAAU 220900Z 29004KT 4000 HZ NSC 31/12 Q1014 NOSIG

Hora: 17:03 (11:33 UTC)

Pronòstic

L'informe es va fer fa 3 hores i 33 minuts, a les 08:00 UTC
Pronòstic vàlid del 22 a les 09 UTC al 22 a les 18 UTC
Vent 7 kt del Oest/Nord-Oest
Visibilitat: 4000 m
Escasses núvols a una alçada de 2000 ft
calitja, fum
Evolucionant progressivament
l' 22 a les 13 UTC al 22 a les 15 UTC
Vent 5 kt del Nord/Nord-Est
Visibilitat: 3000 m
Escasses núvols a una alçada de 10000 ft
calitja

TAF: VAAU 220800Z 2209/2218 29007KT 4000 HZ FU FEW020 BECMG 2213/2215 02005KT 3000 HZ FEW100

Observacions i pronòstics meteorològics de més de 4000 aeroports (METAR i TAF).

Les estacions disponibles són els punts grocs i vermells al mapa.

Posi el ratolí al punt desitjat per veure el nom de l'estació.

Feu clic per veure les observacions i els pronòstics meteorològics.

Per canviar el mapa: feu clic els botons verds amb una creu de color negre per apropar; al botó verd amb un guió per allunyar la imatge; o en les fletxes verdes per a mapes adjacents.


METAR-TAF: